Time;durP1;ratioP1;P1;durP2;ratioP2;P2;SDS_P1;SDS_P2;PMS_P1;PMS_P2;Temp;Humidity;BMP_temperature;BMP_pressure;BME280_temperature;BME280_humidity;BME280_pressure;Samples;Min_cycle;Max_cycle;Signal;HPM_P1;HPM_P2
2021/08/23 00:01:30;;;;;;;2.55;1.86;;;;;;;21.87;72.85;100788.34;;;;-48
2021/08/23 00:04:31;;;;;;;2.17;1.79;;;;;;;21.87;72.84;100787.06;;;;-48
2021/08/23 00:07:30;;;;;;;2.09;1.73;;;;;;;21.86;72.83;100789.02;;;;-48
2021/08/23 00:10:30;;;;;;;1.81;1.70;;;;;;;21.85;72.88;100790.41;;;;-48
2021/08/23 00:13:30;;;;;;;2.93;1.82;;;;;;;21.85;72.85;100786.63;;;;-48
2021/08/23 00:16:30;;;;;;;1.99;1.70;;;;;;;21.85;72.84;100785.16;;;;-59
2021/08/23 00:19:31;;;;;;;1.88;1.71;;;;;;;21.85;72.87;100787.86;;;;-51
2021/08/23 00:22:33;;;;;;;2.18;1.87;;;;;;;21.84;72.87;100786.41;;;;-51
2021/08/23 00:25:30;;;;;;;2.39;1.92;;;;;;;21.83;72.89;100790.66;;;;-51
2021/08/23 00:28:30;;;;;;;1.97;1.70;;;;;;;21.83;72.88;100790.95;;;;-52
2021/08/23 00:31:30;;;;;;;2.28;1.78;;;;;;;21.82;72.88;100795.45;;;;-59
2021/08/23 00:34:30;;;;;;;2.36;1.80;;;;;;;21.82;72.89;100789.91;;;;-60
2021/08/23 00:37:30;;;;;;;3.05;1.71;;;;;;;21.81;72.88;100785.99;;;;-51
2021/08/23 00:40:30;;;;;;;2.72;1.77;;;;;;;21.80;72.86;100786.22;;;;-51
2021/08/23 00:43:30;;;;;;;1.78;1.65;;;;;;;21.80;72.89;100785.32;;;;-51
2021/08/23 00:46:30;;;;;;;2.93;1.86;;;;;;;21.79;72.86;100785.41;;;;-51
2021/08/23 00:49:30;;;;;;;1.85;1.70;;;;;;;21.79;72.87;100785.50;;;;-51
2021/08/23 00:52:30;;;;;;;1.93;1.69;;;;;;;21.79;72.85;100784.77;;;;-51
2021/08/23 00:55:31;;;;;;;1.85;1.70;;;;;;;21.79;72.84;100783.63;;;;-51
2021/08/23 00:58:30;;;;;;;1.80;1.70;;;;;;;21.79;72.88;100789.23;;;;-59
2021/08/23 01:01:30;;;;;;;2.01;1.74;;;;;;;21.78;72.89;100788.83;;;;-59
2021/08/23 01:04:30;;;;;;;1.84;1.74;;;;;;;21.78;72.86;100795.27;;;;-59
2021/08/23 01:07:30;;;;;;;2.07;1.86;;;;;;;21.77;72.89;100796.83;;;;-59
2021/08/23 01:10:30;;;;;;;2.55;1.76;;;;;;;21.77;72.90;100793.47;;;;-48
2021/08/23 01:13:30;;;;;;;2.09;1.89;;;;;;;21.76;72.87;100792.00;;;;-48
2021/08/23 01:16:30;;;;;;;2.31;1.89;;;;;;;21.76;72.90;100789.23;;;;-48
2021/08/23 01:19:30;;;;;;;2.24;1.80;;;;;;;21.76;72.93;100789.89;;;;-52
2021/08/23 01:22:30;;;;;;;1.99;1.65;;;;;;;21.76;72.86;100793.14;;;;-48
2021/08/23 01:25:30;;;;;;;2.90;1.83;;;;;;;21.75;72.84;100791.11;;;;-51
2021/08/23 01:28:30;;;;;;;1.83;1.62;;;;;;;21.75;72.85;100786.45;;;;-50
2021/08/23 01:31:30;;;;;;;1.84;1.73;;;;;;;21.74;72.87;100782.86;;;;-48
2021/08/23 01:34:30;;;;;;;1.81;1.71;;;;;;;21.74;72.89;100786.29;;;;-48
2021/08/23 01:37:30;;;;;;;1.93;1.75;;;;;;;21.74;72.88;100785.64;;;;-48
2021/08/23 01:40:30;;;;;;;2.90;1.71;;;;;;;21.74;72.84;100787.10;;;;-59
2021/08/23 01:43:30;;;;;;;1.84;1.73;;;;;;;21.73;72.87;100786.22;;;;-59
2021/08/23 01:46:31;;;;;;;1.71;1.61;;;;;;;21.72;72.85;100786.03;;;;-59
2021/08/23 01:49:30;;;;;;;1.92;1.70;;;;;;;21.72;72.87;100790.11;;;;-51
2021/08/23 01:52:30;;;;;;;2.03;1.80;;;;;;;21.72;72.84;100791.09;;;;-51
2021/08/23 01:55:30;;;;;;;1.76;1.66;;;;;;;21.72;72.90;100797.54;;;;-48
2021/08/23 01:58:30;;;;;;;1.66;1.56;;;;;;;21.72;72.85;100804.64;;;;-48
2021/08/23 02:01:30;;;;;;;1.92;1.70;;;;;;;21.71;72.87;100805.88;;;;-48
2021/08/23 02:04:30;;;;;;;1.73;1.63;;;;;;;21.71;72.88;100808.57;;;;-51
2021/08/23 02:07:30;;;;;;;1.78;1.68;;;;;;;21.71;72.87;100810.69;;;;-51
2021/08/23 02:10:31;;;;;;;2.17;1.79;;;;;;;21.70;72.83;100806.75;;;;-51
2021/08/23 02:13:30;;;;;;;2.20;1.60;;;;;;;21.70;72.87;100804.05;;;;-51
2021/08/23 02:16:30;;;;;;;2.21;1.76;;;;;;;21.70;72.85;100799.25;;;;-51
2021/08/23 02:19:30;;;;;;;1.89;1.72;;;;;;;21.69;72.83;100797.79;;;;-51
2021/08/23 02:22:30;;;;;;;1.91;1.81;;;;;;;21.69;72.88;100796.00;;;;-48
2021/08/23 02:25:30;;;;;;;3.13;1.82;;;;;;;21.70;72.86;100801.70;;;;-48
2021/08/23 02:28:30;;;;;;;1.80;1.70;;;;;;;21.68;72.87;100801.11;;;;-48
2021/08/23 02:31:30;;;;;;;1.76;1.66;;;;;;;21.68;72.84;100795.81;;;;-48
2021/08/23 02:34:30;;;;;;;1.87;1.75;;;;;;;21.68;72.88;100794.11;;;;-48
2021/08/23 02:37:30;;;;;;;2.31;1.77;;;;;;;21.67;72.89;100793.95;;;;-48
2021/08/23 02:40:30;;;;;;;2.15;1.95;;;;;;;21.67;72.84;100793.78;;;;-48
2021/08/23 02:43:30;;;;;;;1.70;1.60;;;;;;;21.68;72.87;100798.76;;;;-48
2021/08/23 02:46:30;;;;;;;2.39;1.75;;;;;;;21.66;72.89;100798.34;;;;-48
2021/08/23 02:49:30;;;;;;;1.76;1.66;;;;;;;21.67;72.89;100795.18;;;;-48
2021/08/23 02:52:30;;;;;;;1.66;1.56;;;;;;;21.66;72.85;100793.44;;;;-48
2021/08/23 02:55:30;;;;;;;1.70;1.59;;;;;;;21.66;72.84;100791.16;;;;-48
2021/08/23 02:58:30;;;;;;;2.05;1.72;;;;;;;21.65;72.87;100792.15;;;;-48
2021/08/23 03:01:30;;;;;;;1.81;1.71;;;;;;;21.66;72.87;100800.05;;;;-59
2021/08/23 03:04:30;;;;;;;1.73;1.63;;;;;;;21.66;72.87;100799.57;;;;-59
2021/08/23 03:07:30;;;;;;;2.31;1.58;;;;;;;21.64;72.87;100799.99;;;;-60
2021/08/23 03:10:30;;;;;;;1.89;1.79;;;;;;;21.64;72.87;100800.97;;;;-60
2021/08/23 03:13:30;;;;;;;1.75;1.65;;;;;;;21.64;72.89;100799.80;;;;-60
2021/08/23 03:16:30;;;;;;;2.01;1.80;;;;;;;21.64;72.85;100798.52;;;;-51
2021/08/23 03:19:30;;;;;;;2.01;1.73;;;;;;;21.64;72.86;100797.36;;;;-52
2021/08/23 03:22:30;;;;;;;1.69;1.57;;;;;;;21.63;72.88;100798.99;;;;-51
2021/08/23 03:25:30;;;;;;;2.22;1.57;;;;;;;21.63;72.87;100803.23;;;;-48
2021/08/23 03:28:30;;;;;;;1.73;1.59;;;;;;;21.63;72.89;100802.58;;;;-50
2021/08/23 03:31:30;;;;;;;1.70;1.60;;;;;;;21.63;72.87;100799.33;;;;-51
2021/08/23 03:34:30;;;;;;;2.47;1.53;;;;;;;21.63;72.86;100798.51;;;;-51
2021/08/23 03:37:30;;;;;;;1.66;1.56;;;;;;;21.62;72.84;100799.83;;;;-51
2021/08/23 03:40:30;;;;;;;1.97;1.61;;;;;;;21.61;72.91;100798.17;;;;-51
2021/08/23 03:43:30;;;;;;;1.64;1.54;;;;;;;21.62;72.87;100797.02;;;;-50
2021/08/23 03:46:32;;;;;;;1.80;1.70;;;;;;;21.62;72.89;100797.44;;;;-51
2021/08/23 03:49:30;;;;;;;1.70;1.60;;;;;;;21.62;72.88;100797.84;;;;-51
2021/08/23 03:52:30;;;;;;;1.72;1.62;;;;;;;21.60;72.88;100796.12;;;;-51
2021/08/23 03:55:30;;;;;;;1.68;1.58;;;;;;;21.61;72.90;100796.80;;;;-51
2021/08/23 03:58:30;;;;;;;2.03;1.83;;;;;;;21.60;72.88;100794.57;;;;-51
2021/08/23 04:01:30;;;;;;;1.83;1.73;;;;;;;21.60;72.91;100794.98;;;;-51
2021/08/23 04:04:30;;;;;;;1.79;1.69;;;;;;;21.59;72.86;100795.72;;;;-51
2021/08/23 04:07:30;;;;;;;1.90;1.71;;;;;;;21.59;72.89;100798.66;;;;-51
2021/08/23 04:10:30;;;;;;;1.80;1.70;;;;;;;21.59;72.90;100800.86;;;;-51
2021/08/23 04:13:30;;;;;;;1.75;1.65;;;;;;;21.59;72.89;100801.27;;;;-51
2021/08/23 04:16:30;;;;;;;1.69;1.59;;;;;;;21.58;72.90;100796.95;;;;-51
2021/08/23 04:19:30;;;;;;;1.70;1.60;;;;;;;21.58;72.88;100798.07;;;;-51
2021/08/23 04:22:30;;;;;;;2.31;1.73;;;;;;;21.58;72.90;100803.45;;;;-51
2021/08/23 04:25:30;;;;;;;1.81;1.71;;;;;;;21.58;72.91;100804.43;;;;-50
2021/08/23 04:28:30;;;;;;;1.64;1.54;;;;;;;21.57;72.91;100809.42;;;;-51
2021/08/23 04:31:31;;;;;;;1.89;1.60;;;;;;;21.58;72.87;100810.30;;;;-51
2021/08/23 04:34:30;;;;;;;1.89;1.74;;;;;;;21.58;72.86;100812.61;;;;-51
2021/08/23 04:37:30;;;;;;;1.83;1.63;;;;;;;21.57;72.87;100810.47;;;;-52
2021/08/23 04:40:30;;;;;;;1.74;1.64;;;;;;;21.57;72.90;100816.02;;;;-51
2021/08/23 04:43:30;;;;;;;1.87;1.70;;;;;;;21.57;72.85;100815.12;;;;-51
2021/08/23 04:46:30;;;;;;;1.75;1.60;;;;;;;21.57;72.86;100819.77;;;;-51
2021/08/23 04:49:30;;;;;;;1.70;1.60;;;;;;;21.57;72.88;100820.75;;;;-51
2021/08/23 04:52:30;;;;;;;1.68;1.58;;;;;;;21.56;72.88;100824.02;;;;-52
2021/08/23 04:55:30;;;;;;;1.99;1.60;;;;;;;21.55;72.90;100821.48;;;;-51
2021/08/23 04:58:30;;;;;;;1.66;1.56;;;;;;;21.56;72.93;100824.11;;;;-51
2021/08/23 05:01:30;;;;;;;1.77;1.66;;;;;;;21.55;72.88;100826.28;;;;-52
2021/08/23 05:04:30;;;;;;;1.74;1.64;;;;;;;21.55;72.87;100826.70;;;;-51
2021/08/23 05:07:30;;;;;;;1.84;1.52;;;;;;;21.56;72.87;100826.37;;;;-51
2021/08/23 05:10:30;;;;;;;1.69;1.59;;;;;;;21.55;72.87;100826.45;;;;-51
2021/08/23 05:13:30;;;;;;;2.31;1.60;;;;;;;21.55;72.88;100823.36;;;;-51
2021/08/23 05:16:30;;;;;;;1.63;1.53;;;;;;;21.54;72.93;100824.66;;;;-51
2021/08/23 05:19:30;;;;;;;1.63;1.53;;;;;;;21.54;72.89;100818.14;;;;-51
2021/08/23 05:22:30;;;;;;;1.82;1.65;;;;;;;21.54;72.90;100819.20;;;;-52
2021/08/23 05:25:32;;;;;;;1.61;1.51;;;;;;;21.54;72.95;100817.73;;;;-52
2021/08/23 05:28:30;;;;;;;1.57;1.47;;;;;;;21.53;72.91;100813.56;;;;-51
2021/08/23 05:31:30;;;;;;;1.62;1.51;;;;;;;21.54;72.87;100817.30;;;;-51
2021/08/23 05:34:30;;;;;;;1.64;1.54;;;;;;;21.53;72.86;100819.34;;;;-51
2021/08/23 05:37:30;;;;;;;1.50;1.40;;;;;;;21.54;72.89;100819.53;;;;-51
2021/08/23 05:40:32;;;;;;;1.70;1.60;;;;;;;21.53;72.88;100822.94;;;;-51
2021/08/23 05:43:30;;;;;;;1.60;1.50;;;;;;;21.53;72.90;100825.22;;;;-51
2021/08/23 05:46:30;;;;;;;1.67;1.57;;;;;;;21.53;72.88;100824.41;;;;-51
2021/08/23 05:49:30;;;;;;;1.67;1.57;;;;;;;21.52;72.90;100822.13;;;;-51
2021/08/23 05:52:30;;;;;;;1.59;1.49;;;;;;;21.52;72.93;100825.39;;;;-52
2021/08/23 05:55:30;;;;;;;1.61;1.51;;;;;;;21.52;72.87;100828.01;;;;-51
2021/08/23 05:58:30;;;;;;;1.58;1.48;;;;;;;21.52;72.85;100829.72;;;;-52
2021/08/23 06:01:30;;;;;;;1.67;1.57;;;;;;;21.52;72.92;100833.72;;;;-51
2021/08/23 06:04:30;;;;;;;1.68;1.58;;;;;;;21.52;72.90;100833.72;;;;-59
2021/08/23 06:07:30;;;;;;;1.57;1.47;;;;;;;21.52;72.93;100832.81;;;;-59
2021/08/23 06:10:30;;;;;;;1.71;1.60;;;;;;;21.51;72.88;100833.45;;;;-59
2021/08/23 06:13:30;;;;;;;1.55;1.45;;;;;;;21.52;72.87;100836.22;;;;-48
2021/08/23 06:16:30;;;;;;;1.51;1.41;;;;;;;21.52;72.89;100837.11;;;;-58
2021/08/23 06:19:30;;;;;;;1.90;1.58;;;;;;;21.51;72.93;100836.39;;;;-58
2021/08/23 06:22:30;;;;;;;1.50;1.40;;;;;;;21.51;72.91;100837.69;;;;-59
2021/08/23 06:25:30;;;;;;;2.03;1.50;;;;;;;21.51;72.88;100842.58;;;;-48
2021/08/23 06:28:30;;;;;;;1.55;1.45;;;;;;;21.51;72.89;100843.00;;;;-52
2021/08/23 06:31:30;;;;;;;1.73;1.61;;;;;;;21.51;72.87;100843.97;;;;-58
2021/08/23 06:34:30;;;;;;;1.67;1.57;;;;;;;21.51;72.87;100842.34;;;;-51
2021/08/23 06:37:31;;;;;;;1.60;1.50;;;;;;;21.51;72.86;100844.30;;;;-51
2021/08/23 06:40:30;;;;;;;1.51;1.41;;;;;;;21.50;72.89;100842.52;;;;-51
2021/08/23 06:43:30;;;;;;;1.59;1.49;;;;;;;21.51;72.88;100840.39;;;;-51
2021/08/23 06:46:30;;;;;;;1.60;1.50;;;;;;;21.50;72.88;100842.10;;;;-51
2021/08/23 06:49:30;;;;;;;1.71;1.61;;;;;;;21.50;72.86;100839.63;;;;-51
2021/08/23 06:52:30;;;;;;;1.65;1.55;;;;;;;21.50;72.88;100843.98;;;;-51
2021/08/23 06:55:30;;;;;;;1.69;1.59;;;;;;;21.49;72.89;100845.75;;;;-51
2021/08/23 06:58:30;;;;;;;1.69;1.59;;;;;;;21.49;72.88;100853.25;;;;-51
2021/08/23 07:01:30;;;;;;;1.61;1.51;;;;;;;21.49;72.88;100853.17;;;;-51
2021/08/23 07:04:30;;;;;;;1.50;1.40;;;;;;;21.49;72.89;100852.11;;;;-50
2021/08/23 07:07:32;;;;;;;1.56;1.46;;;;;;;21.49;72.87;100850.73;;;;-50
2021/08/23 07:10:30;;;;;;;1.59;1.49;;;;;;;21.49;72.87;100852.20;;;;-51
2021/08/23 07:13:30;;;;;;;1.63;1.53;;;;;;;21.48;72.90;100850.81;;;;-59
2021/08/23 07:16:30;;;;;;;1.61;1.51;;;;;;;21.48;72.86;100847.39;;;;-59
2021/08/23 07:19:30;;;;;;;1.60;1.50;;;;;;;21.48;72.84;100851.97;;;;-48
2021/08/23 07:22:30;;;;;;;1.50;1.40;;;;;;;21.48;72.89;100851.36;;;;-48
2021/08/23 07:25:30;;;;;;;1.49;1.39;;;;;;;21.48;72.88;100849.90;;;;-48
2021/08/23 07:28:30;;;;;;;1.53;1.43;;;;;;;21.47;72.90;100851.28;;;;-48
2021/08/23 07:31:30;;;;;;;1.57;1.47;;;;;;;21.47;72.87;100856.02;;;;-48
2021/08/23 07:34:30;;;;;;;1.56;1.46;;;;;;;21.47;72.92;100854.14;;;;-48
2021/08/23 07:37:32;;;;;;;1.63;1.40;;;;;;;21.47;72.92;100850.39;;;;-51
2021/08/23 07:40:30;;;;;;;1.50;1.40;;;;;;;21.48;72.87;100851.85;;;;-51
2021/08/23 07:43:30;;;;;;;1.81;1.49;;;;;;;21.47;72.83;100848.67;;;;-51
2021/08/23 07:46:30;;;;;;;2.54;1.58;;;;;;;21.48;72.88;100856.53;;;;-48
2021/08/23 07:49:30;;;;;;;1.50;1.40;;;;;;;21.47;72.86;100856.91;;;;-48
2021/08/23 07:52:30;;;;;;;1.58;1.40;;;;;;;21.48;72.83;100859.36;;;;-50
2021/08/23 07:55:30;;;;;;;1.93;1.47;;;;;;;21.47;72.87;100859.03;;;;-51
2021/08/23 07:58:30;;;;;;;1.61;1.50;;;;;;;21.47;72.84;100860.75;;;;-51
2021/08/23 08:01:30;;;;;;;1.58;1.48;;;;;;;21.47;72.87;100859.44;;;;-51
2021/08/23 08:04:30;;;;;;;1.70;1.40;;;;;;;21.47;72.87;100855.45;;;;-51
2021/08/23 08:07:30;;;;;;;1.70;1.57;;;;;;;21.47;72.86;100863.52;;;;-51
2021/08/23 08:10:30;;;;;;;1.62;1.52;;;;;;;21.46;72.88;100865.25;;;;-50
2021/08/23 08:13:30;;;;;;;6.26;2.18;;;;;;;21.44;73.17;100863.69;;;;-52
2021/08/23 08:16:30;;;;;;;3.20;2.33;;;;;;;21.39;73.37;100863.53;;;;-52
2021/08/23 08:19:30;;;;;;;5.05;2.40;;;;;;;21.38;73.46;100863.05;;;;-54
2021/08/23 08:22:30;;;;;;;3.55;2.50;;;;;;;21.34;73.72;100861.23;;;;-52
2021/08/23 08:25:30;;;;;;;3.82;2.45;;;;;;;21.33;73.74;100864.83;;;;-59
2021/08/23 08:28:32;;;;;;;4.76;2.43;;;;;;;21.39;74.04;100868.42;;;;-51
2021/08/23 08:31:30;;;;;;;3.59;2.31;;;;;;;21.44;73.97;100873.30;;;;-51
2021/08/23 08:34:30;;;;;;;3.83;2.49;;;;;;;21.49;73.88;100875.92;;;;-47
2021/08/23 08:37:30;;;;;;;6.45;2.38;;;;;;;21.52;73.94;100875.36;;;;-52
2021/08/23 08:40:30;;;;;;;4.67;2.47;;;;;;;21.55;73.80;100874.90;;;;-50
2021/08/23 08:43:30;;;;;;;5.24;2.37;;;;;;;21.58;73.80;100885.09;;;;-51
2021/08/23 08:46:30;;;;;;;3.59;2.39;;;;;;;21.59;73.65;100883.88;;;;-51
2021/08/23 08:49:30;;;;;;;4.20;2.23;;;;;;;21.61;73.66;100887.41;;;;-50
2021/08/23 08:52:30;;;;;;;3.35;2.21;;;;;;;21.63;73.67;100891.08;;;;-49
2021/08/23 08:55:32;;;;;;;3.89;2.39;;;;;;;21.65;73.66;100891.59;;;;-51
2021/08/23 08:58:30;;;;;;;3.66;2.15;;;;;;;21.66;73.55;100895.16;;;;-51
2021/08/23 09:01:30;;;;;;;2.95;2.07;;;;;;;21.67;73.61;100895.34;;;;-49
2021/08/23 09:04:31;;;;;;;3.98;2.31;;;;;;;21.68;73.59;100895.58;;;;-51
2021/08/23 09:07:30;;;;;;;4.16;2.15;;;;;;;21.70;73.68;100896.89;;;;-52
2021/08/23 09:10:31;;;;;;;11.26;2.28;;;;;;;21.72;73.92;100898.70;;;;-57
2021/08/23 09:13:30;;;;;;;6.19;2.35;;;;;;;21.72;73.69;100899.75;;;;-51
2021/08/23 09:16:30;;;;;;;5.55;2.54;;;;;;;21.72;73.83;100901.22;;;;-51
2021/08/23 09:19:33;;;;;;;6.76;2.36;;;;;;;21.74;73.90;100903.44;;;;-50
2021/08/23 09:22:30;;;;;;;6.50;2.39;;;;;;;21.74;73.80;100906.86;;;;-51
2021/08/23 09:25:30;;;;;;;4.65;2.33;;;;;;;21.75;73.84;100909.41;;;;-58
2021/08/23 09:28:30;;;;;;;4.29;2.45;;;;;;;21.77;73.74;100908.33;;;;-51
2021/08/23 09:31:30;;;;;;;4.73;2.21;;;;;;;21.77;73.77;100909.42;;;;-51
2021/08/23 09:34:30;;;;;;;4.77;2.39;;;;;;;21.78;73.69;100910.55;;;;-51
2021/08/23 09:37:30;;;;;;;4.64;2.33;;;;;;;21.79;73.65;100913.51;;;;-52
2021/08/23 09:40:30;;;;;;;8.36;2.41;;;;;;;21.80;73.68;100914.64;;;;-66
2021/08/23 09:43:30;;;;;;;4.38;2.39;;;;;;;21.80;73.72;100912.35;;;;-52
2021/08/23 09:46:32;;;;;;;6.07;2.14;;;;;;;21.81;73.66;100914.01;;;;-54
2021/08/23 09:49:30;;;;;;;4.13;2.15;;;;;;;21.83;73.63;100912.03;;;;-57
2021/08/23 09:52:30;;;;;;;4.97;2.40;;;;;;;21.83;73.64;100914.91;;;;-53
2021/08/23 09:55:30;;;;;;;4.98;2.30;;;;;;;21.84;73.57;100912.70;;;;-55
2021/08/23 09:58:30;;;;;;;3.81;2.29;;;;;;;21.84;73.60;100913.19;;;;-59
2021/08/23 10:01:30;;;;;;;4.20;2.27;;;;;;;21.85;73.61;100919.14;;;;-50
2021/08/23 10:04:30;;;;;;;4.10;2.13;;;;;;;21.85;73.53;100918.65;;;;-54
2021/08/23 10:07:30;;;;;;;2.95;2.11;;;;;;;21.86;73.52;100922.83;;;;-56
2021/08/23 10:10:30;;;;;;;6.13;2.44;;;;;;;21.87;73.48;100921.05;;;;-56
2021/08/23 10:13:30;;;;;;;5.03;2.43;;;;;;;21.88;73.51;100924.87;;;;-53
2021/08/23 10:16:30;;;;;;;4.47;2.40;;;;;;;21.87;73.44;100924.94;;;;-54
2021/08/23 10:19:30;;;;;;;5.63;2.39;;;;;;;21.86;73.38;100923.81;;;;-54
2021/08/23 10:22:30;;;;;;;4.45;2.27;;;;;;;21.86;73.33;100923.72;;;;-54
2021/08/23 10:25:30;;;;;;;4.91;2.31;;;;;;;21.86;73.30;100928.29;;;;-54
2021/08/23 10:28:30;;;;;;;2.52;2.15;;;;;;;21.85;73.28;100928.30;;;;-54
2021/08/23 10:31:30;;;;;;;4.77;2.31;;;;;;;21.86;73.24;100924.63;;;;-55
2021/08/23 10:34:30;;;;;;;3.34;2.19;;;;;;;21.85;73.20;100925.04;;;;-54
2021/08/23 10:37:30;;;;;;;5.75;2.44;;;;;;;21.85;73.17;100923.79;;;;-65
2021/08/23 10:40:30;;;;;;;2.98;2.20;;;;;;;21.84;73.15;100919.72;;;;-57
2021/08/23 10:43:33;;;;;;;3.26;2.20;;;;;;;21.84;73.10;100912.70;;;;-55
2021/08/23 10:46:30;;;;;;;2.81;2.32;;;;;;;21.84;73.03;100913.35;;;;-54
2021/08/23 10:49:30;;;;;;;3.14;2.17;;;;;;;21.84;73.04;100908.46;;;;-54
2021/08/23 10:52:30;;;;;;;3.45;2.11;;;;;;;21.84;73.01;100909.44;;;;-56
2021/08/23 10:55:30;;;;;;;5.36;2.33;;;;;;;21.83;73.02;100904.39;;;;-56
2021/08/23 10:58:30;;;;;;;3.01;2.17;;;;;;;21.83;72.96;100902.08;;;;-66
2021/08/23 11:01:30;;;;;;;2.37;2.07;;;;;;;21.83;72.93;100900.39;;;;-52
2021/08/23 11:04:30;;;;;;;2.91;2.21;;;;;;;21.83;72.90;100898.73;;;;-55
2021/08/23 11:07:30;;;;;;;2.97;2.09;;;;;;;21.82;72.91;100897.76;;;;-56
2021/08/23 11:10:30;;;;;;;2.10;1.90;;;;;;;21.82;72.89;100896.12;;;;-55
2021/08/23 11:13:30;;;;;;;2.51;2.09;;;;;;;21.82;72.88;100894.58;;;;-56
2021/08/23 11:16:31;;;;;;;3.05;2.40;;;;;;;21.82;72.87;100891.31;;;;-56
2021/08/23 11:19:30;;;;;;;2.60;2.10;;;;;;;21.82;72.84;100888.30;;;;-56
2021/08/23 11:22:30;;;;;;;3.16;2.17;;;;;;;21.83;72.83;100889.84;;;;-54
2021/08/23 11:25:30;;;;;;;3.39;2.11;;;;;;;21.82;72.82;100890.41;;;;-66
2021/08/23 11:28:30;;;;;;;2.45;2.19;;;;;;;21.82;72.79;100883.81;;;;-56
2021/08/23 11:31:30;;;;;;;3.60;2.11;;;;;;;21.82;72.77;100880.63;;;;-55
2021/08/23 11:34:30;;;;;;;3.65;2.20;;;;;;;21.82;72.75;100880.13;;;;-54
2021/08/23 11:37:30;;;;;;;2.87;2.23;;;;;;;21.82;72.74;100878.09;;;;-54
2021/08/23 11:40:30;;;;;;;3.97;2.01;;;;;;;21.81;72.71;100872.31;;;;-54
2021/08/23 11:43:30;;;;;;;3.54;2.07;;;;;;;21.82;72.71;100870.84;;;;-55
2021/08/23 11:46:30;;;;;;;2.67;2.03;;;;;;;21.82;72.69;100868.06;;;;-56
2021/08/23 11:49:30;;;;;;;2.49;2.05;;;;;;;21.81;72.68;100863.97;;;;-55
2021/08/23 11:52:30;;;;;;;2.29;2.09;;;;;;;21.81;72.69;100867.02;;;;-51
2021/08/23 11:55:30;;;;;;;3.03;2.07;;;;;;;21.82;72.75;100860.88;;;;-58
2021/08/23 11:58:31;;;;;;;3.26;1.99;;;;;;;21.83;72.74;100863.43;;;;-51
2021/08/23 12:01:30;;;;;;;2.29;2.01;;;;;;;21.85;72.80;100859.50;;;;-50
2021/08/23 12:04:30;;;;;;;2.35;1.99;;;;;;;21.85;72.79;100864.66;;;;-51
2021/08/23 12:07:30;;;;;;;3.45;2.16;;;;;;;21.86;72.84;100867.09;;;;-53
2021/08/23 12:10:30;;;;;;;3.13;2.06;;;;;;;21.87;72.86;100869.31;;;;-58
2021/08/23 12:13:30;;;;;;;6.37;2.27;;;;;;;21.88;72.81;100865.56;;;;-51
2021/08/23 12:16:30;;;;;;;5.38;2.40;;;;;;;21.88;72.86;100863.19;;;;-56
2021/08/23 12:19:30;;;;;;;5.31;2.21;;;;;;;21.89;72.89;100862.55;;;;-52
2021/08/23 12:22:30;;;;;;;3.22;2.18;;;;;;;21.90;72.86;100861.06;;;;-51
2021/08/23 12:25:40;;;;;;;3.65;2.37;;;;;;;21.91;72.89;100861.80;;;;-52
2021/08/23 12:28:30;;;;;;;3.19;2.39;;;;;;;21.92;72.95;100858.97;;;;-50
2021/08/23 12:31:30;;;;;;;4.23;2.27;;;;;;;21.91;72.72;100828.01;;;;-50
2021/08/23 12:34:30;;;;;;;2.87;2.31;;;;;;;21.91;72.94;100858.53;;;;-51
2021/08/23 12:37:31;;;;;;;3.29;2.52;;;;;;;21.92;72.96;100855.61;;;;-51
2021/08/23 12:40:30;;;;;;;4.63;2.39;;;;;;;21.93;72.92;100856.17;;;;-50
2021/08/23 12:43:30;;;;;;;2.95;2.47;;;;;;;21.95;72.96;100857.16;;;;-59
2021/08/23 12:46:30;;;;;;;4.59;2.21;;;;;;;21.96;72.95;100854.31;;;;-51
2021/08/23 12:49:30;;;;;;;3.81;2.17;;;;;;;21.97;72.95;100853.41;;;;-51
2021/08/23 12:52:30;;;;;;;3.63;2.30;;;;;;;21.97;72.96;100848.83;;;;-51
2021/08/23 12:55:30;;;;;;;2.81;2.32;;;;;;;21.98;72.96;100844.29;;;;-52
2021/08/23 12:58:30;;;;;;;4.02;2.26;;;;;;;21.99;72.95;100848.11;;;;-60
2021/08/23 13:01:30;;;;;;;3.37;2.31;;;;;;;21.99;72.93;100852.59;;;;-56
2021/08/23 13:04:30;;;;;;;4.86;2.32;;;;;;;22.00;72.98;100850.41;;;;-60
2021/08/23 13:07:30;;;;;;;4.31;2.30;;;;;;;22.01;72.96;100845.91;;;;-55
2021/08/23 13:10:31;;;;;;;3.52;2.33;;;;;;;22.01;72.94;100844.61;;;;-60
2021/08/23 13:13:30;;;;;;;8.02;2.08;;;;;;;22.03;72.90;100842.25;;;;-59
2021/08/23 13:16:30;;;;;;;3.85;2.33;;;;;;;22.01;72.90;100838.39;;;;-48
2021/08/23 13:19:30;;;;;;;4.21;2.25;;;;;;;22.03;72.94;100838.65;;;;-54
2021/08/23 13:22:30;;;;;;;2.78;2.17;;;;;;;22.02;72.99;100839.23;;;;-63
2021/08/23 13:25:30;;;;;;;3.33;2.26;;;;;;;22.03;73.04;100835.80;;;;-50
2021/08/23 13:28:30;;;;;;;3.53;2.24;;;;;;;22.03;72.95;100832.86;;;;-53
2021/08/23 13:31:30;;;;;;;3.15;2.16;;;;;;;22.04;72.97;100831.62;;;;-55
2021/08/23 13:34:30;;;;;;;3.22;2.33;;;;;;;22.04;72.90;100834.34;;;;-57
2021/08/23 13:37:30;;;;;;;4.12;2.34;;;;;;;22.06;72.91;100831.95;;;;-57
2021/08/23 13:40:30;;;;;;;3.41;2.29;;;;;;;22.06;72.87;100829.85;;;;-52
2021/08/23 13:43:30;;;;;;;3.86;2.31;;;;;;;22.06;72.91;100833.12;;;;-56
2021/08/23 13:46:30;;;;;;;3.04;2.17;;;;;;;22.06;72.89;100832.47;;;;-56
2021/08/23 13:49:30;;;;;;;2.84;2.20;;;;;;;22.07;72.92;100830.74;;;;-57
2021/08/23 13:52:30;;;;;;;3.18;2.20;;;;;;;22.08;72.87;100829.02;;;;-61
2021/08/23 13:55:30;;;;;;;4.21;2.20;;;;;;;22.08;72.87;100827.33;;;;-60
2021/08/23 13:58:30;;;;;;;2.29;2.05;;;;;;;22.09;72.92;100826.42;;;;-60
2021/08/23 14:01:30;;;;;;;2.49;2.11;;;;;;;22.09;72.86;100830.66;;;;-59
2021/08/23 14:04:33;;;;;;;3.70;2.30;;;;;;;22.10;72.87;100828.28;;;;-57
2021/08/23 14:07:44;;;;;;;4.62;2.27;;;;;;;22.11;72.82;100826.27;;;;-50
2021/08/23 14:10:30;;;;;;;2.15;1.95;;;;;;;22.10;72.82;100825.12;;;;-47
2021/08/23 14:13:30;;;;;;;4.49;2.18;;;;;;;22.10;72.73;100822.19;;;;-52
2021/08/23 14:16:30;;;;;;;4.59;2.30;;;;;;;22.09;72.82;100822.66;;;;-60
2021/08/23 14:19:30;;;;;;;2.78;2.10;;;;;;;22.09;72.76;100821.93;;;;-59
2021/08/23 14:22:30;;;;;;;3.18;2.03;;;;;;;22.09;72.72;100822.09;;;;-59
2021/08/23 14:25:30;;;;;;;2.55;2.07;;;;;;;22.08;72.70;100824.22;;;;-51
2021/08/23 14:28:30;;;;;;;3.16;2.11;;;;;;;22.08;72.65;100821.34;;;;-60
2021/08/23 14:31:30;;;;;;;9.10;2.31;;;;;;;22.07;72.70;100819.80;;;;-60
2021/08/23 14:34:30;;;;;;;7.45;2.61;;;;;;;22.06;72.75;100818.57;;;;-61
2021/08/23 14:37:30;;;;;;;6.83;2.18;;;;;;;22.08;72.77;100819.90;;;;-63
2021/08/23 14:40:30;;;;;;;2.69;2.19;;;;;;;22.08;72.63;100820.86;;;;-52
2021/08/23 14:43:30;;;;;;;5.47;2.35;;;;;;;22.08;72.78;100826.34;;;;-53
2021/08/23 14:46:30;;;;;;;4.19;2.42;;;;;;;22.09;72.74;100826.17;;;;-51
2021/08/23 14:49:30;;;;;;;5.74;2.32;;;;;;;22.09;72.76;100828.54;;;;-53
2021/08/23 14:52:30;;;;;;;5.14;2.53;;;;;;;22.09;72.78;100829.53;;;;-54
2021/08/23 14:55:30;;;;;;;5.79;2.52;;;;;;;22.10;72.77;100832.12;;;;-50
2021/08/23 14:58:30;;;;;;;6.96;2.54;;;;;;;22.11;72.72;100839.97;;;;-50
2021/08/23 15:01:30;;;;;;;4.70;2.43;;;;;;;22.12;72.73;100838.98;;;;-64
2021/08/23 15:04:30;;;;;;;5.22;2.33;;;;;;;22.12;72.73;100844.78;;;;-53
2021/08/23 15:07:30;;;;;;;7.79;2.36;;;;;;;22.12;72.75;100843.72;;;;-53
2021/08/23 15:10:30;;;;;;;7.71;2.54;;;;;;;22.11;72.79;100843.41;;;;-52
2021/08/23 15:13:30;;;;;;;5.13;2.50;;;;;;;22.12;72.71;100842.59;;;;-52
2021/08/23 15:16:31;;;;;;;4.14;2.42;;;;;;;22.12;72.72;100839.39;;;;-60
2021/08/23 15:19:30;;;;;;;6.59;2.45;;;;;;;22.13;72.69;100837.70;;;;-51
2021/08/23 15:22:30;;;;;;;6.51;2.50;;;;;;;22.13;72.71;100841.20;;;;-50
2021/08/23 15:25:30;;;;;;;4.72;2.52;;;;;;;22.14;72.68;100841.52;;;;-51
2021/08/23 15:28:30;;;;;;;3.90;2.45;;;;;;;22.14;72.69;100840.87;;;;-53
2021/08/23 15:31:30;;;;;;;3.15;2.20;;;;;;;22.14;72.73;100841.19;;;;-56
2021/08/23 15:34:30;;;;;;;4.52;2.55;;;;;;;22.14;72.68;100847.17;;;;-52
2021/08/23 15:37:30;;;;;;;4.14;2.50;;;;;;;22.14;72.72;100843.88;;;;-63
2021/08/23 15:40:30;;;;;;;3.54;2.49;;;;;;;22.14;72.72;100844.70;;;;-49
2021/08/23 15:43:31;;;;;;;4.93;2.31;;;;;;;22.14;72.66;100846.41;;;;-51
2021/08/23 15:46:30;;;;;;;5.62;2.51;;;;;;;22.15;72.71;100844.80;;;;-50
2021/08/23 15:49:46;;;;;;;6.61;2.92;;;;;;;22.15;72.13;100846.67;;;;-50
2021/08/23 15:52:30;;;;;;;8.32;3.01;;;;;;;22.14;71.94;100844.07;;;;-65
2021/08/23 15:55:30;;;;;;;8.73;2.97;;;;;;;22.14;72.03;100854.20;;;;-65
2021/08/23 15:58:30;;;;;;;5.73;2.98;;;;;;;22.14;72.02;100852.78;;;;-53
2021/08/23 16:01:30;;;;;;;9.51;2.79;;;;;;;22.12;72.20;100860.13;;;;-52
2021/08/23 16:04:31;;;;;;;8.01;2.97;;;;;;;22.14;72.16;100863.72;;;;-48
2021/08/23 16:07:30;;;;;;;4.71;2.77;;;;;;;22.14;72.19;100866.91;;;;-60
2021/08/23 16:10:30;;;;;;;8.20;2.78;;;;;;;22.14;72.29;100863.80;;;;-50
2021/08/23 16:13:30;;;;;;;7.75;2.76;;;;;;;22.13;72.33;100868.87;;;;-52
2021/08/23 16:16:30;;;;;;;9.37;2.88;;;;;;;22.15;72.32;100871.41;;;;-62
2021/08/23 16:19:30;;;;;;;7.05;2.91;;;;;;;22.16;72.36;100871.39;;;;-60
2021/08/23 16:22:30;;;;;;;6.75;2.79;;;;;;;22.17;72.32;100875.41;;;;-60
2021/08/23 16:25:30;;;;;;;4.40;2.67;;;;;;;22.17;72.34;100876.47;;;;-60
2021/08/23 16:28:30;;;;;;;5.86;2.81;;;;;;;22.18;72.44;100881.61;;;;-53
2021/08/23 16:31:30;;;;;;;5.80;2.79;;;;;;;22.18;72.38;100883.27;;;;-61
2021/08/23 16:34:30;;;;;;;8.22;2.63;;;;;;;22.19;72.43;100883.67;;;;-53
2021/08/23 16:37:30;;;;;;;5.33;2.88;;;;;;;22.20;72.44;100882.19;;;;-49
2021/08/23 16:40:30;;;;;;;6.79;2.79;;;;;;;22.20;72.44;100881.53;;;;-59
2021/08/23 16:43:30;;;;;;;6.23;2.85;;;;;;;22.19;72.46;100883.58;;;;-52